Time;durP1;ratioP1;P1;durP2;ratioP2;P2;SDS_P1;SDS_P2;PMS_P1;PMS_P2;Temp;Humidity;BMP_temperature;BMP_pressure;BME280_temperature;BME280_humidity;BME280_pressure;Samples;Min_cycle;Max_cycle;Signal;HPM_P1;HPM_P2
2023/03/04 00:02:40;;;;;;;9.53;9.23;;;0.50;99.90;;;;;;5085822;28;20226;-84
2023/03/04 00:05:09;;;;;;;9.90;9.60;;;0.50;99.90;;;;;;5085257;28;20206;-84
2023/03/04 00:07:37;;;;;;;9.93;9.63;;;0.50;99.90;;;;;;5084187;28;20307;-84
2023/03/04 00:10:28;;;;;;;9.70;9.40;;;0.50;99.90;;;;;;5080663;28;20233;-83
2023/03/04 00:13:02;;;;;;;9.80;9.50;;;0.50;99.90;;;;;;5095825;28;20225;-84
2023/03/04 00:15:33;;;;;;;9.90;9.60;;;0.50;99.90;;;;;;5111871;28;20225;-83
2023/03/04 00:20:51;;;;;;;9.80;9.50;;;0.40;99.90;;;;;;5117804;28;20212;-84
2023/03/04 00:23:22;;;;;;;9.80;9.50;;;0.40;99.90;;;;;;5118823;28;20209;-84
2023/03/04 00:25:56;;;;;;;9.80;9.50;;;0.40;99.90;;;;;;5119844;27;20224;-84
2023/03/04 00:28:37;;;;;;;9.60;9.30;;;0.30;99.90;;;;;;5119636;27;20285;-83
2023/03/04 00:31:05;;;;;;;9.80;9.50;;;0.30;99.90;;;;;;5120338;27;20251;-84
2023/03/04 00:36:23;;;;;;;9.80;9.50;;;0.20;99.90;;;;;;5117706;28;20221;-84
2023/03/04 00:38:52;;;;;;;9.87;9.57;;;0.20;99.90;;;;;;5118590;28;20255;-84
2023/03/04 00:41:20;;;;;;;9.80;9.50;;;0.10;99.90;;;;;;5122416;28;20236;-84
2023/03/04 00:44:00;;;;;;;9.90;9.60;;;0.00;99.90;;;;;;5124051;27;20240;-83
2023/03/04 00:46:29;;;;;;;9.83;9.53;;;0.00;99.90;;;;;;5123270;27;20209;-83
2023/03/04 00:48:59;;;;;;;9.83;9.53;;;0.00;99.90;;;;;;5124266;27;20210;-82
2023/03/04 00:51:28;;;;;;;9.93;9.63;;;-0.10;99.90;;;;;;5124187;27;20226;-82
2023/03/04 00:53:56;;;;;;;9.80;9.50;;;-0.10;99.90;;;;;;5123359;27;20220;-82
2023/03/04 00:56:27;;;;;;;10.03;9.73;;;-0.10;99.90;;;;;;5122690;28;20216;-82
2023/03/04 00:58:57;;;;;;;9.80;9.50;;;-0.10;99.90;;;;;;5122970;27;20244;-82
2023/03/04 01:01:33;;;;;;;9.40;9.10;;;-0.20;99.90;;;;;;5122978;27;20243;-83
2023/03/04 01:04:03;;;;;;;9.80;9.50;;;-0.20;99.90;;;;;;5123459;27;20254;-82
2023/03/04 01:09:18;;;;;;;10.10;9.80;;;-0.30;99.90;;;;;;5121091;28;20231;-83
2023/03/04 01:11:48;;;;;;;10.27;9.97;;;-0.30;99.90;;;;;;5118089;28;20216;-83
2023/03/04 01:14:28;;;;;;;9.90;9.60;;;-0.30;99.90;;;;;;5121716;27;20231;-83
2023/03/04 01:16:55;;;;;;;10.17;9.87;;;-0.30;99.90;;;;;;5121886;28;20205;-83
2023/03/04 01:19:25;;;;;;;10.20;9.90;;;-0.30;99.90;;;;;;5121735;28;20228;-82
2023/03/04 01:21:55;;;;;;;10.00;9.70;;;-0.30;99.90;;;;;;5121319;28;20389;-83
2023/03/04 01:24:24;;;;;;;10.17;9.87;;;-0.30;99.90;;;;;;5120433;28;20244;-83
2023/03/04 01:26:53;;;;;;;10.10;9.80;;;-0.30;99.90;;;;;;5119168;28;20331;-82
2023/03/04 01:29:28;;;;;;;10.07;9.77;;;-0.30;99.90;;;;;;5118374;28;20240;-83
2023/03/04 01:34:39;;;;;;;10.10;9.80;;;-0.40;99.90;;;;;;5105166;28;20691;-83
2023/03/04 01:37:08;;;;;;;9.97;9.67;;;-0.50;99.90;;;;;;5105601;28;20243;-83
2023/03/04 01:39:37;;;;;;;9.90;9.60;;;-0.40;99.90;;;;;;5105160;28;20224;-83
2023/03/04 01:42:07;;;;;;;9.70;9.40;;;-0.60;99.90;;;;;;5104999;28;20224;-82
2023/03/04 01:44:39;;;;;;;9.90;9.60;;;-0.80;99.90;;;;;;5104613;28;20286;-83
2023/03/04 01:47:09;;;;;;;9.80;9.50;;;-0.90;99.90;;;;;;5103169;28;20247;-82
2023/03/04 01:49:37;;;;;;;10.03;9.73;;;-0.90;99.90;;;;;;5108732;28;20228;-82
2023/03/04 01:52:15;;;;;;;10.20;9.90;;;-1.00;99.90;;;;;;5110561;28;20230;-83
2023/03/04 01:54:43;;;;;;;10.30;10.00;;;-1.00;99.90;;;;;;5104361;28;20229;-82
2023/03/04 01:57:23;;;;;;;10.27;9.97;;;-1.00;99.90;;;;;;5103389;28;20232;-82
2023/03/04 02:03:15;;;;;;;10.03;9.73;;;-1.10;99.90;;;;;;5103316;28;20228;-82
2023/03/04 02:05:53;;;;;;;10.00;9.70;;;-1.00;99.90;;;;;;5105673;28;20271;-82
2023/03/04 02:08:31;;;;;;;10.27;9.97;;;-1.00;99.90;;;;;;5113487;27;20209;-83
2023/03/04 02:11:00;;;;;;;10.10;9.80;;;-1.00;99.90;;;;;;5105955;28;20229;-82
2023/03/04 02:13:33;;;;;;;10.20;9.90;;;-1.00;99.90;;;;;;5105526;28;20249;-82
2023/03/04 02:16:04;;;;;;;10.40;10.10;;;-1.10;99.90;;;;;;5103264;28;20319;-82
2023/03/04 02:21:28;;;;;;;10.40;10.10;;;-1.10;99.90;;;;;;5102869;28;20254;-82
2023/03/04 02:24:05;;;;;;;10.37;10.07;;;-1.10;99.90;;;;;;5103299;28;20228;-82
2023/03/04 02:26:36;;;;;;;10.23;9.93;;;-1.10;99.90;;;;;;5103399;28;20239;-82
2023/03/04 02:29:05;;;;;;;10.47;10.17;;;-1.20;99.90;;;;;;5114607;28;20248;-82
2023/03/04 02:31:41;;;;;;;10.40;10.10;;;-1.20;99.90;;;;;;5120107;28;20263;-83
2023/03/04 02:34:20;;;;;;;10.40;10.10;;;-1.20;99.90;;;;;;5111916;28;20229;-82
2023/03/04 02:36:57;;;;;;;10.53;10.23;;;-1.20;99.90;;;;;;5106897;28;20237;-82
2023/03/04 02:39:35;;;;;;;10.40;10.10;;;-1.20;99.90;;;;;;5082779;28;20284;-82
2023/03/04 02:44:51;;;;;;;10.50;10.20;;;-1.20;99.90;;;;;;5064307;28;20278;-82
2023/03/04 02:47:22;;;;;;;10.33;10.03;;;-1.30;99.90;;;;;;5062920;28;20230;-82
2023/03/04 02:49:51;;;;;;;10.40;10.10;;;-1.20;99.90;;;;;;5063511;28;20230;-82
2023/03/04 02:52:28;;;;;;;10.43;10.13;;;-1.20;99.90;;;;;;5064043;28;20313;-82
2023/03/04 03:00:41;;;;;;;10.40;10.10;;;-1.20;99.90;;;;;;5058702;28;20238;-82
2023/03/04 03:03:10;;;;;;;10.30;10.00;;;-1.20;99.90;;;;;;5062434;28;20252;-82
2023/03/04 03:05:41;;;;;;;10.60;10.30;;;-1.20;99.90;;;;;;5063218;28;20314;-82
2023/03/04 03:08:12;;;;;;;10.87;10.57;;;-1.20;99.90;;;;;;5062738;28;20268;-82
2023/03/04 03:10:40;;;;;;;10.40;10.10;;;-1.20;99.90;;;;;;5062578;28;20252;-82
2023/03/04 03:13:20;;;;;;;10.50;10.20;;;-1.20;99.90;;;;;;5064024;28;20285;-82
2023/03/04 03:15:48;;;;;;;10.40;10.10;;;-1.30;99.90;;;;;;5063104;28;20233;-82
2023/03/04 03:18:18;;;;;;;10.60;10.30;;;-1.30;99.90;;;;;;5060584;28;20238;-82
2023/03/04 03:20:48;;;;;;;10.50;10.20;;;-1.40;99.90;;;;;;5061470;28;20251;-82
2023/03/04 03:23:23;;;;;;;10.60;10.30;;;-1.40;99.90;;;;;;5061549;28;20608;-82
2023/03/04 03:25:53;;;;;;;10.90;10.60;;;-1.40;99.90;;;;;;5061652;28;20308;-82
2023/03/04 03:28:25;;;;;;;10.50;10.20;;;-1.40;99.90;;;;;;5063770;28;20257;-82
2023/03/04 03:31:00;;;;;;;10.60;10.30;;;-1.50;99.90;;;;;;5085388;28;20290;-82
2023/03/04 03:33:42;;;;;;;10.80;10.50;;;-1.60;99.90;;;;;;5083932;28;20236;-82
2023/03/04 03:36:10;;;;;;;10.50;10.20;;;-1.60;99.90;;;;;;5082595;28;20266;-83
2023/03/04 03:38:38;;;;;;;10.60;10.30;;;-1.60;99.90;;;;;;5082260;28;20242;-82
2023/03/04 03:41:09;;;;;;;10.70;10.40;;;-1.70;99.90;;;;;;5082669;28;20220;-82
2023/03/04 03:43:39;;;;;;;10.50;10.20;;;-1.70;99.90;;;;;;5082563;28;20228;-82
2023/03/04 03:46:07;;;;;;;10.50;10.20;;;-1.70;99.90;;;;;;5082525;28;20263;-82
2023/03/04 03:48:38;;;;;;;10.50;10.20;;;-1.70;99.90;;;;;;5085553;28;20268;-82
2023/03/04 03:51:06;;;;;;;10.60;10.30;;;-1.80;99.90;;;;;;5094588;28;20225;-82
2023/03/04 03:53:34;;;;;;;10.50;10.20;;;-1.80;99.90;;;;;;5103202;28;20232;-82
2023/03/04 03:56:04;;;;;;;10.33;10.03;;;-1.90;99.90;;;;;;5103452;28;20234;-82
2023/03/04 03:58:34;;;;;;;10.50;10.20;;;-1.90;99.90;;;;;;5103286;28;20243;-82
2023/03/04 04:01:13;;;;;;;10.37;10.07;;;-1.90;99.90;;;;;;5103667;28;20236;-82
2023/03/04 04:03:43;;;;;;;10.33;10.03;;;-1.90;99.90;;;;;;5101583;28;20235;-82
2023/03/04 04:06:12;;;;;;;10.70;10.40;;;-1.90;99.90;;;;;;5101827;28;20291;-82
2023/03/04 04:08:42;;;;;;;10.57;10.27;;;-1.90;99.90;;;;;;5101265;28;20243;-82
2023/03/04 04:11:11;;;;;;;10.60;10.30;;;-2.00;99.90;;;;;;5101719;28;20216;-82
2023/03/04 04:13:40;;;;;;;10.43;10.13;;;-2.00;99.90;;;;;;5102057;28;20277;-82
2023/03/04 04:16:20;;;;;;;10.53;10.23;;;-2.10;99.90;;;;;;5103287;28;20425;-82
2023/03/04 04:18:48;;;;;;;10.40;10.10;;;-2.00;99.90;;;;;;5106452;28;20255;-82
2023/03/04 04:21:17;;;;;;;10.20;9.90;;;-2.10;99.90;;;;;;5106815;28;20220;-82
2023/03/04 04:23:47;;;;;;;10.20;9.90;;;-2.00;99.90;;;;;;5108284;28;20238;-82
2023/03/04 04:26:17;;;;;;;10.60;10.30;;;-2.00;99.90;;;;;;5108382;28;20229;-82
2023/03/04 04:28:46;;;;;;;10.30;10.00;;;-2.00;99.90;;;;;;5107559;28;20291;-83
2023/03/04 04:31:24;;;;;;;10.17;9.87;;;-2.00;99.90;;;;;;5107185;28;20233;-83
2023/03/04 04:33:53;;;;;;;10.40;10.10;;;-1.90;99.90;;;;;;5113064;28;20261;-83
2023/03/04 04:36:23;;;;;;;10.40;10.10;;;-1.90;99.90;;;;;;5116631;28;20242;-82
2023/03/04 04:38:52;;;;;;;10.13;9.83;;;-1.90;99.90;;;;;;5108887;28;20270;-82
2023/03/04 04:41:23;;;;;;;10.27;9.97;;;-1.80;99.90;;;;;;5107393;28;20223;-82
2023/03/04 04:43:51;;;;;;;10.13;9.83;;;-1.90;99.90;;;;;;5107553;28;20246;-82
2023/03/04 04:46:23;;;;;;;10.17;9.87;;;-1.80;99.90;;;;;;5107881;28;20230;-82
2023/03/04 04:48:51;;;;;;;10.23;9.93;;;-1.70;99.90;;;;;;5114461;28;20220;-82
2023/03/04 04:51:20;;;;;;;10.20;9.90;;;-1.70;99.90;;;;;;5116589;28;20221;-81
2023/03/04 04:53:49;;;;;;;10.20;9.90;;;-1.70;99.90;;;;;;5106133;28;20238;-82
2023/03/04 04:56:20;;;;;;;10.40;10.10;;;-1.70;99.90;;;;;;5104391;28;20295;-82
2023/03/04 04:58:49;;;;;;;10.20;9.90;;;-1.70;99.90;;;;;;5105787;28;20289;-82
2023/03/04 05:01:19;;;;;;;10.40;10.10;;;-1.60;99.90;;;;;;5105203;28;20794;-82
2023/03/04 05:06:34;;;;;;;10.00;9.70;;;-1.60;99.90;;;;;;5087803;28;20242;-82
2023/03/04 05:09:02;;;;;;;9.97;9.67;;;-1.60;99.90;;;;;;5118704;22;20260;-80
2023/03/04 05:11:32;;;;;;;9.80;9.50;;;-1.60;99.90;;;;;;5072634;28;20247;-80
2023/03/04 05:13:59;;;;;;;9.90;9.60;;;-1.50;99.90;;;;;;5078004;28;20316;-80
2023/03/04 05:16:31;;;;;;;9.90;9.60;;;-1.60;99.90;;;;;;5074032;28;20308;-80
2023/03/04 05:19:00;;;;;;;9.90;9.60;;;-1.70;99.90;;;;;;5070798;28;20241;-79
2023/03/04 05:21:29;;;;;;;9.73;9.43;;;-1.70;99.90;;;;;;5071483;28;20239;-80
2023/03/04 05:23:59;;;;;;;9.77;9.47;;;-1.70;99.90;;;;;;5073053;28;20333;-79
2023/03/04 05:26:28;;;;;;;10.10;9.80;;;-1.70;99.90;;;;;;5083566;28;20234;-79
2023/03/04 05:28:58;;;;;;;9.80;9.50;;;-1.70;99.90;;;;;;5077449;28;20325;-80
2023/03/04 05:31:27;;;;;;;10.00;9.70;;;-1.60;99.90;;;;;;5072666;28;20319;-80
2023/03/04 05:34:02;;;;;;;10.00;9.70;;;-1.50;99.90;;;;;;5071793;28;20226;-80
2023/03/04 05:36:29;;;;;;;9.97;9.67;;;-1.50;99.90;;;;;;5071153;28;20316;-80
2023/03/04 05:38:57;;;;;;;10.00;9.70;;;-1.50;99.90;;;;;;5071664;28;20289;-80
2023/03/04 05:41:25;;;;;;;10.00;9.70;;;-1.50;99.90;;;;;;5071402;28;20222;-80
2023/03/04 05:43:55;;;;;;;10.10;9.80;;;-1.60;99.90;;;;;;5070880;28;20236;-80
2023/03/04 05:46:24;;;;;;;10.13;9.83;;;-1.70;99.90;;;;;;5071877;28;20238;-80
2023/03/04 05:48:53;;;;;;;9.93;9.63;;;-1.70;99.90;;;;;;5089891;28;20229;-80
2023/03/04 05:51:35;;;;;;;10.37;10.07;;;-1.80;99.90;;;;;;5073234;28;20332;-80
2023/03/04 05:54:02;;;;;;;10.30;10.00;;;-1.80;99.90;;;;;;5071288;28;20243;-79
2023/03/04 05:56:32;;;;;;;10.30;10.00;;;-1.70;99.90;;;;;;5074391;28;20331;-80
2023/03/04 05:59:00;;;;;;;10.30;10.00;;;-1.60;99.90;;;;;;5077932;28;20229;-80
2023/03/04 06:01:30;;;;;;;9.83;9.53;;;-1.60;99.90;;;;;;5094050;28;20293;-80
2023/03/04 06:04:01;;;;;;;10.30;10.00;;;-1.50;99.90;;;;;;5092049;28;20239;-80
2023/03/04 06:06:33;;;;;;;10.20;9.90;;;-1.40;99.90;;;;;;5091225;28;20237;-80
2023/03/04 06:09:00;;;;;;;9.93;9.63;;;-1.40;99.90;;;;;;5091119;28;20344;-80
2023/03/04 06:11:30;;;;;;;10.33;10.03;;;-1.40;99.90;;;;;;5091787;28;20249;-80
2023/03/04 06:14:00;;;;;;;10.17;9.87;;;-1.40;99.90;;;;;;5091810;28;20262;-80
2023/03/04 06:16:29;;;;;;;10.10;9.80;;;-1.40;99.90;;;;;;5091238;28;20243;-80
2023/03/04 06:18:57;;;;;;;10.10;9.80;;;-1.40;99.90;;;;;;5098146;28;20274;-79
2023/03/04 06:21:27;;;;;;;9.93;9.63;;;-1.30;99.90;;;;;;5100483;28;20286;-79
2023/03/04 06:24:05;;;;;;;10.17;9.87;;;-1.30;99.90;;;;;;5100601;28;20217;-80
2023/03/04 06:26:34;;;;;;;9.90;9.60;;;-1.30;99.90;;;;;;5086065;28;20248;-80
2023/03/04 06:29:04;;;;;;;9.97;9.67;;;-1.20;99.90;;;;;;5086486;28;20264;-80
2023/03/04 06:31:34;;;;;;;10.00;9.70;;;-1.20;99.90;;;;;;5089693;28;20202;-80
2023/03/04 06:34:03;;;;;;;9.70;9.40;;;-1.20;99.90;;;;;;5091429;28;20301;-80
2023/03/04 06:36:33;;;;;;;10.10;9.80;;;-1.20;99.90;;;;;;5090447;28;20272;-80
2023/03/04 06:39:04;;;;;;;9.90;9.60;;;-1.10;99.90;;;;;;5088901;28;20237;-80
2023/03/04 06:41:32;;;;;;;9.73;9.43;;;-1.10;99.90;;;;;;5090997;28;20206;-80
2023/03/04 06:44:01;;;;;;;9.90;9.60;;;-1.10;99.90;;;;;;5090791;28;20237;-80
2023/03/04 06:46:30;;;;;;;9.73;9.43;;;-1.00;99.90;;;;;;5090682;28;20237;-80
2023/03/04 06:49:00;;;;;;;9.70;9.40;;;-0.90;99.90;;;;;;5089599;28;20246;-80
2023/03/04 06:51:30;;;;;;;9.70;9.40;;;-0.80;99.90;;;;;;5090361;28;20233;-80
2023/03/04 06:53:58;;;;;;;9.70;9.40;;;-0.80;99.90;;;;;;5089831;28;20233;-80
2023/03/04 06:56:29;;;;;;;9.70;9.40;;;-0.70;99.90;;;;;;5093864;28;20297;-80
2023/03/04 06:58:58;;;;;;;9.70;9.40;;;-0.70;99.90;;;;;;5095067;28;20287;-80
2023/03/04 07:01:28;;;;;;;9.80;9.50;;;-0.70;99.90;;;;;;5095679;28;20245;-79
2023/03/04 07:03:57;;;;;;;9.80;9.50;;;-0.60;99.90;;;;;;5095321;28;20237;-80
2023/03/04 07:06:27;;;;;;;9.77;9.47;;;-0.60;99.90;;;;;;5097802;28;20217;-80
2023/03/04 07:08:56;;;;;;;9.90;9.60;;;-0.50;99.90;;;;;;5096792;28;20324;-80
2023/03/04 07:11:25;;;;;;;9.70;9.40;;;-0.50;99.90;;;;;;5092852;28;20230;-80
2023/03/04 07:14:06;;;;;;;9.77;9.47;;;-0.50;99.90;;;;;;5091057;28;20298;-80
2023/03/04 07:16:33;;;;;;;9.67;9.37;;;-0.40;99.90;;;;;;5090836;28;20236;-80
2023/03/04 07:19:02;;;;;;;9.70;9.40;;;-0.40;99.90;;;;;;5090547;28;20237;-80
2023/03/04 07:21:32;;;;;;;9.80;9.50;;;-0.30;99.90;;;;;;5090435;28;20220;-80
2023/03/04 07:24:00;;;;;;;10.00;9.70;;;-0.30;99.90;;;;;;5090843;28;20265;-80
2023/03/04 07:26:32;;;;;;;9.93;9.63;;;-0.30;99.90;;;;;;5090402;28;20232;-80
2023/03/04 07:29:09;;;;;;;9.90;9.60;;;-0.20;99.90;;;;;;5089883;28;20242;-81
2023/03/04 07:31:38;;;;;;;9.90;9.60;;;-0.20;99.90;;;;;;5089473;28;20218;-80
2023/03/04 07:34:17;;;;;;;9.90;9.60;;;-0.10;99.90;;;;;;5089318;28;20234;-79
2023/03/04 07:36:45;;;;;;;10.03;9.73;;;-0.10;99.90;;;;;;5089535;28;20245;-79
2023/03/04 07:39:14;;;;;;;10.00;9.70;;;0.00;99.90;;;;;;5088833;28;20276;-80
2023/03/04 07:41:44;;;;;;;10.07;9.77;;;0.00;99.90;;;;;;5088933;28;20249;-80
2023/03/04 07:44:16;;;;;;;10.07;9.77;;;0.00;99.90;;;;;;5089724;28;20250;-80
2023/03/04 07:46:46;;;;;;;10.17;9.87;;;0.00;99.90;;;;;;5090043;28;20222;-79
2023/03/04 07:49:14;;;;;;;10.20;9.90;;;-0.10;99.90;;;;;;5089601;28;20297;-80
2023/03/04 07:51:42;;;;;;;10.30;10.00;;;0.00;99.90;;;;;;5083023;28;20279;-82
2023/03/04 07:54:12;;;;;;;10.45;10.15;;;0.10;99.90;;;;;;5089952;28;20432;-80
2023/03/04 07:56:43;;;;;;;10.30;10.00;;;0.20;99.90;;;;;;5090514;28;20262;-83
2023/03/04 07:59:20;;;;;;;10.10;9.80;;;0.30;99.90;;;;;;5091663;28;20245;-79
2023/03/04 08:01:50;;;;;;;10.10;9.80;;;0.30;99.90;;;;;;5090929;28;20375;-80
2023/03/04 08:04:22;;;;;;;9.87;9.57;;;0.40;99.90;;;;;;5092582;28;20277;-80
2023/03/04 08:06:49;;;;;;;10.20;9.90;;;0.50;99.90;;;;;;5092965;28;20282;-80
2023/03/04 08:09:20;;;;;;;9.90;9.60;;;0.50;99.90;;;;;;5091070;28;20242;-80
2023/03/04 08:11:47;;;;;;;10.00;9.70;;;0.40;99.90;;;;;;5090243;28;20234;-80
2023/03/04 08:14:20;;;;;;;9.90;9.60;;;0.40;99.90;;;;;;5091909;28;20240;-80
2023/03/04 08:16:48;;;;;;;9.70;9.40;;;0.40;99.90;;;;;;5087360;28;20647;-80
2023/03/04 08:19:18;;;;;;;9.97;9.67;;;0.40;99.90;;;;;;5091656;28;20258;-80
2023/03/04 08:21:46;;;;;;;9.87;9.57;;;0.50;99.90;;;;;;5092445;28;20229;-80
2023/03/04 08:24:15;;;;;;;9.53;9.23;;;0.50;99.90;;;;;;5091636;28;20265;-81
2023/03/04 08:26:46;;;;;;;9.60;9.30;;;0.60;99.90;;;;;;5092063;28;20282;-79
2023/03/04 08:29:23;;;;;;;9.57;9.27;;;0.60;99.90;;;;;;5093167;28;20253;-80
2023/03/04 08:31:54;;;;;;;9.67;9.37;;;0.50;99.90;;;;;;5093008;28;20233;-80
2023/03/04 08:34:24;;;;;;;9.80;9.50;;;0.50;99.90;;;;;;5093935;28;20230;-79
2023/03/04 08:36:52;;;;;;;9.90;9.60;;;0.40;99.90;;;;;;5090445;28;20258;-81
2023/03/04 08:39:21;;;;;;;9.80;9.50;;;0.40;99.90;;;;;;5089147;28;20227;-80
2023/03/04 08:41:50;;;;;;;9.60;9.30;;;0.50;99.90;;;;;;5089876;28;20222;-80
2023/03/04 08:44:21;;;;;;;9.90;9.60;;;0.60;99.90;;;;;;5089463;28;20253;-80
2023/03/04 08:46:49;;;;;;;9.90;9.60;;;0.70;99.90;;;;;;5088846;28;20285;-80
2023/03/04 08:49:20;;;;;;;10.03;9.73;;;0.80;99.90;;;;;;5088449;28;20260;-81
2023/03/04 08:51:48;;;;;;;10.13;9.83;;;0.90;99.90;;;;;;5084025;28;20341;-81
2023/03/04 08:54:17;;;;;;;10.17;9.87;;;1.10;99.90;;;;;;5090663;28;20249;-79
2023/03/04 08:56:46;;;;;;;9.90;9.60;;;1.10;99.90;;;;;;5078709;28;20238;-80
2023/03/04 08:59:15;;;;;;;10.13;9.83;;;1.10;99.90;;;;;;5069932;28;20235;-80
2023/03/04 09:01:55;;;;;;;10.10;9.80;;;1.00;99.90;;;;;;5070535;28;20239;-80
2023/03/04 09:04:23;;;;;;;10.10;9.80;;;1.10;99.90;;;;;;5072606;28;20233;-80
2023/03/04 09:06:53;;;;;;;10.00;9.70;;;1.10;99.90;;;;;;5073255;28;20231;-80
2023/03/04 09:09:23;;;;;;;10.40;10.10;;;1.10;99.90;;;;;;5072980;28;20238;-80
2023/03/04 09:11:51;;;;;;;10.07;9.77;;;1.10;99.90;;;;;;5072714;28;20219;-80
2023/03/04 09:14:21;;;;;;;10.00;9.70;;;1.20;99.90;;;;;;5073482;28;20241;-80
2023/03/04 09:16:57;;;;;;;10.10;9.80;;;1.20;99.90;;;;;;5072302;28;21024;-80
2023/03/04 09:19:30;;;;;;;9.87;9.57;;;1.30;99.90;;;;;;5072569;28;20264;-80
2023/03/04 09:21:59;;;;;;;9.97;9.67;;;1.30;99.90;;;;;;5072533;28;20240;-80
2023/03/04 09:24:28;;;;;;;10.10;9.80;;;1.40;99.90;;;;;;5073279;28;20230;-80
2023/03/04 09:26:58;;;;;;;10.00;9.70;;;1.40;99.90;;;;;;5072851;28;20238;-80
2023/03/04 09:29:27;;;;;;;9.97;9.67;;;1.40;99.90;;;;;;5072401;28;20235;-80
2023/03/04 09:31:57;;;;;;;10.10;9.80;;;1.40;99.90;;;;;;5081568;28;20282;-79
2023/03/04 09:34:25;;;;;;;9.90;9.60;;;1.40;99.90;;;;;;5091800;28;20254;-80
2023/03/04 09:36:54;;;;;;;9.83;9.53;;;1.40;99.90;;;;;;5092967;28;20225;-79
2023/03/04 09:39:22;;;;;;;9.80;9.50;;;1.40;99.90;;;;;;5092198;28;20294;-79
2023/03/04 09:41:55;;;;;;;9.90;9.60;;;1.40;99.90;;;;;;5090510;28;20230;-79
2023/03/04 09:44:29;;;;;;;9.63;9.33;;;1.50;99.90;;;;;;5091103;28;20293;-79
2023/03/04 09:47:03;;;;;;;9.60;9.30;;;1.50;99.90;;;;;;5092243;28;20256;-79
2023/03/04 09:49:32;;;;;;;9.60;9.30;;;1.60;99.90;;;;;;5092020;28;20261;-79
2023/03/04 09:52:06;;;;;;;9.40;9.10;;;1.70;99.90;;;;;;5092196;28;20232;-78
2023/03/04 09:54:57;;;;;;;9.80;9.50;;;1.70;99.90;;;;;;5091012;28;20236;-78
2023/03/04 09:57:31;;;;;;;9.80;9.50;;;1.70;99.90;;;;;;5090285;28;20273;-80
2023/03/04 10:00:18;;;;;;;9.40;9.10;;;1.80;99.90;;;;;;5093536;28;20237;-80
2023/03/04 10:03:05;;;;;;;9.27;8.97;;;1.80;99.90;;;;;;5092629;28;20210;-80
2023/03/04 10:05:38;;;;;;;9.33;9.03;;;1.80;99.90;;;;;;5093373;28;20268;-80
2023/03/04 10:08:42;;;;;;;9.57;9.27;;;1.80;99.90;;;;;;5077217;28;20249;-80
2023/03/04 10:11:17;;;;;;;9.90;9.60;;;1.80;99.90;;;;;;5073344;28;20301;-80
2023/03/04 10:13:58;;;;;;;9.50;9.20;;;1.80;99.90;;;;;;5073920;28;20218;-80
2023/03/04 10:16:33;;;;;;;9.50;9.20;;;1.90;99.90;;;;;;5073210;28;20253;-80
2023/03/04 10:19:26;;;;;;;9.60;9.30;;;1.90;99.90;;;;;;5090900;28;20256;-80
2023/03/04 10:21:56;;;;;;;9.50;9.20;;;1.90;99.90;;;;;;5092790;28;20229;-79
2023/03/04 10:24:29;;;;;;;9.30;9.00;;;1.90;99.90;;;;;;5093389;28;20265;-80
2023/03/04 10:27:03;;;;;;;9.40;9.10;;;2.00;99.90;;;;;;5092658;28;20250;-79
2023/03/04 10:29:33;;;;;;;9.70;9.40;;;2.00;99.90;;;;;;5092093;28;20233;-78
2023/03/04 10:32:01;;;;;;;9.70;9.40;;;2.10;99.90;;;;;;5091513;28;20234;-79
2023/03/04 10:34:31;;;;;;;9.60;9.30;;;2.10;99.90;;;;;;5089882;28;20257;-79
2023/03/04 10:37:01;;;;;;;9.77;9.47;;;2.20;99.90;;;;;;5091052;28;20221;-80
2023/03/04 10:39:32;;;;;;;9.80;9.50;;;2.20;99.90;;;;;;5093969;28;20245;-79
2023/03/04 10:42:02;;;;;;;9.50;9.20;;;2.20;99.90;;;;;;5093701;28;20215;-79
2023/03/04 10:44:32;;;;;;;9.43;9.13;;;2.30;99.90;;;;;;5092791;28;20246;-79
2023/03/04 10:47:01;;;;;;;9.60;9.30;;;2.30;99.90;;;;;;5093224;28;20240;-79
2023/03/04 10:49:32;;;;;;;9.60;9.30;;;2.30;99.90;;;;;;5092870;28;20332;-80
2023/03/04 10:52:07;;;;;;;9.50;9.20;;;2.30;99.90;;;;;;5092239;28;20231;-80
2023/03/04 10:54:42;;;;;;;9.47;9.17;;;2.40;99.90;;;;;;5092249;28;20332;-80
2023/03/04 10:57:16;;;;;;;9.30;9.00;;;2.50;99.90;;;;;;5091412;28;20259;-80
2023/03/04 10:59:49;;;;;;;9.10;8.80;;;2.50;99.90;;;;;;5092841;28;20301;-79
2023/03/04 11:02:28;;;;;;;9.37;9.07;;;2.50;99.90;;;;;;5091718;28;20307;-80
2023/03/04 11:05:18;;;;;;;9.20;8.90;;;2.60;99.90;;;;;;5095918;28;20269;-79
2023/03/04 11:07:49;;;;;;;9.33;9.03;;;2.70;99.90;;;;;;5097189;28;20329;-79
2023/03/04 11:10:20;;;;;;;9.60;9.30;;;2.70;99.90;;;;;;5092577;28;20290;-79
2023/03/04 11:12:56;;;;;;;9.73;9.43;;;2.60;99.90;;;;;;5083807;28;20232;-79
2023/03/04 11:15:26;;;;;;;9.57;9.27;;;2.70;99.90;;;;;;5081562;28;20309;-79
2023/03/04 11:17:58;;;;;;;9.57;9.27;;;2.60;99.90;;;;;;5081107;28;20302;-79
2023/03/04 11:20:32;;;;;;;9.33;9.03;;;2.40;99.90;;;;;;5081323;28;20230;-80
2023/03/04 11:23:06;;;;;;;9.70;9.40;;;2.30;99.90;;;;;;5079918;28;20245;-79
2023/03/04 11:25:37;;;;;;;9.60;9.30;;;2.30;99.90;;;;;;5076268;28;20245;-79
2023/03/04 11:28:13;;;;;;;9.63;9.33;;;2.40;99.90;;;;;;5076716;28;20233;-79
2023/03/04 11:30:45;;;;;;;9.40;9.10;;;2.40;99.90;;;;;;5076022;28;20290;-79
2023/03/04 11:33:22;;;;;;;9.30;9.00;;;2.50;99.90;;;;;;5076868;28;20316;-79
2023/03/04 11:36:07;;;;;;;9.20;8.90;;;2.60;99.90;;;;;;5080558;28;20224;-79
2023/03/04 11:38:40;;;;;;;9.27;8.97;;;2.60;99.90;;;;;;5078884;28;20234;-79
2023/03/04 11:41:15;;;;;;;9.40;9.10;;;2.80;99.90;;;;;;5079232;28;20234;-79
2023/03/04 11:43:45;;;;;;;9.50;9.20;;;2.90;99.90;;;;;;5080133;28;20281;-79
2023/03/04 11:46:54;;;;;;;9.60;9.30;;;2.90;99.90;;;;;;5080439;28;20222;-79
2023/03/04 11:49:57;;;;;;;9.63;9.33;;;2.90;99.90;;;;;;5073577;28;20238;-80
2023/03/04 11:52:46;;;;;;;9.80;9.50;;;2.90;99.90;;;;;;5080394;28;20257;-80
2023/03/04 11:55:32;;;;;;;9.50;9.20;;;2.90;99.90;;;;;;5080048;28;20225;-80
2023/03/04 11:58:21;;;;;;;9.20;8.90;;;2.80;99.90;;;;;;5077713;28;20230;-81
2023/03/04 12:00:58;;;;;;;9.20;8.90;;;2.80;99.90;;;;;;5059513;28;20246;-79
2023/03/04 12:03:46;;;;;;;9.50;9.20;;;2.50;99.90;;;;;;5060097;28;20226;-80
2023/03/04 12:06:28;;;;;;;9.33;9.03;;;2.60;99.90;;;;;;5059314;28;20230;-79
2023/03/04 12:09:12;;;;;;;9.60;9.30;;;2.50;99.90;;;;;;5058583;28;20248;-78
2023/03/04 12:11:53;;;;;;;9.70;9.40;;;2.50;99.90;;;;;;5059411;28;20238;-77
2023/03/04 12:14:28;;;;;;;9.40;9.10;;;2.30;99.90;;;;;;5059480;28;20222;-79
2023/03/04 12:17:30;;;;;;;9.50;9.20;;;2.30;99.90;;;;;;5059202;28;20313;-80
2023/03/04 12:20:20;;;;;;;9.70;9.40;;;2.40;99.90;;;;;;5060125;28;20234;-78
2023/03/04 12:22:53;;;;;;;9.50;9.20;;;2.30;99.90;;;;;;5059164;28;20234;-78
2023/03/04 12:25:38;;;;;;;9.20;8.90;;;2.30;99.90;;;;;;5060145;28;20270;-78
2023/03/04 12:28:34;;;;;;;9.20;8.90;;;2.30;99.90;;;;;;5060152;28;20227;-78
2023/03/04 12:31:24;;;;;;;9.50;9.20;;;2.40;99.90;;;;;;5059741;28;20313;-79
2023/03/04 12:34:28;;;;;;;9.50;9.20;;;2.60;99.90;;;;;;5058431;28;20227;-79
2023/03/04 12:37:22;;;;;;;9.33;9.03;;;2.60;99.90;;;;;;5059775;28;20235;-79
2023/03/04 12:40:34;;;;;;;9.30;9.00;;;2.70;99.90;;;;;;5061941;28;20230;-79
2023/03/04 12:43:21;;;;;;;9.57;9.27;;;2.80;99.90;;;;;;5060728;28;20219;-79
2023/03/04 12:46:01;;;;;;;9.60;9.30;;;2.90;99.90;;;;;;5067029;28;20242;-79
2023/03/04 12:48:37;;;;;;;9.40;9.10;;;2.90;99.90;;;;;;5066037;28;20285;-79
2023/03/04 12:51:21;;;;;;;9.40;9.10;;;2.90;99.90;;;;;;5065888;28;20230;-80
2023/03/04 12:54:06;;;;;;;9.43;9.13;;;2.90;99.90;;;;;;5066159;28;20345;-79
2023/03/04 12:56:42;;;;;;;9.30;9.00;;;2.90;99.90;;;;;;5066089;28;20223;-79
2023/03/04 12:59:16;;;;;;;9.20;8.90;;;2.70;99.90;;;;;;5065219;28;20249;-80
2023/03/04 13:01:50;;;;;;;9.23;8.93;;;2.60;99.90;;;;;;5065846;28;20232;-79
2023/03/04 13:04:25;;;;;;;9.23;8.93;;;2.60;99.90;;;;;;5062874;28;20258;-80
2023/03/04 13:07:09;;;;;;;9.50;9.20;;;2.70;99.90;;;;;;5065078;28;20321;-80
2023/03/04 13:09:48;;;;;;;9.50;9.20;;;2.80;99.90;;;;;;5064460;28;20236;-79
2023/03/04 13:12:19;;;;;;;9.40;9.10;;;2.90;99.90;;;;;;5066310;28;20245;-80
2023/03/04 13:15:32;;;;;;;9.13;8.83;;;3.00;99.90;;;;;;5065468;28;20235;-79
2023/03/04 13:18:03;;;;;;;9.23;8.93;;;3.10;99.90;;;;;;5047426;28;20245;-78
2023/03/04 13:20:41;;;;;;;9.40;9.10;;;3.20;99.90;;;;;;5060594;28;20241;-77
2023/03/04 13:23:30;;;;;;;9.37;9.07;;;3.20;99.90;;;;;;5064333;28;20321;-80
2023/03/04 13:26:32;;;;;;;9.40;9.10;;;3.10;99.90;;;;;;5062200;28;20278;-80
2023/03/04 13:29:35;;;;;;;9.47;9.17;;;3.20;99.90;;;;;;5059279;28;20234;-77
2023/03/04 13:32:10;;;;;;;9.40;9.10;;;3.10;99.90;;;;;;5061675;28;20242;-78
2023/03/04 13:34:48;;;;;;;9.20;8.90;;;3.10;99.90;;;;;;5060925;28;20223;-77
2023/03/04 13:37:34;;;;;;;9.50;9.20;;;3.20;99.90;;;;;;5060273;28;20230;-77
2023/03/04 13:40:37;;;;;;;9.57;9.27;;;3.30;99.90;;;;;;5059993;28;20242;-78
2023/03/04 13:43:29;;;;;;;9.37;9.07;;;3.30;99.90;;;;;;5060512;28;20256;-78
2023/03/04 13:45:56;;;;;;;9.53;9.23;;;3.30;99.90;;;;;;5061721;28;20286;-78
2023/03/04 13:48:36;;;;;;;9.27;8.97;;;3.40;99.90;;;;;;5060888;28;20281;-78